Time;durP1;ratioP1;P1;durP2;ratioP2;P2;SDS_P1;SDS_P2;PMS_P1;PMS_P2;Temp;Humidity;BMP_temperature;BMP_pressure;BME280_temperature;BME280_humidity;BME280_pressure;Samples;Min_cycle;Max_cycle;Signal;HPM_P1;HPM_P2
2024/04/12 00:14:17;;;;;;;0.00;0.00;;;;;;;;;;33985646;26;20890;-59
2024/04/12 00:29:36;;;;;;;0.00;0.00;;;;;;;;;;33942350;26;20297;-59
2024/04/12 00:44:45;;;;;;;0.00;0.00;;;;;;;;;;33981655;26;20258;-59
2024/04/12 00:59:52;;;;;;;0.00;0.00;;;;;;;;;;33991931;26;20249;-59
2024/04/12 01:14:58;;;;;;;0.00;0.00;;;;;;;;;;34001772;26;20312;-59
2024/04/12 01:30:34;;;;;;;0.00;0.00;;;;;;;;;;33986962;26;20246;-59
2024/04/12 01:45:40;;;;;;;0.00;0.00;;;;;;;;;;33921665;26;20737;-59
2024/04/12 02:00:46;;;;;;;0.00;0.00;;;;;;;;;;33994290;26;20246;-59
2024/04/12 02:15:57;;;;;;;0.00;0.00;;;;;;;;;;33997908;26;20288;-59
2024/04/12 02:31:10;;;;;;;0.00;0.00;;;;;;;;;;33993920;26;20293;-58
2024/04/12 02:46:17;;;;;;;0.00;0.00;;;;;;;;;;33994242;26;20296;-58
2024/04/12 03:01:24;;;;;;;0.00;0.00;;;;;;;;;;33984090;26;20261;-59
2024/04/12 03:16:31;;;;;;;0.00;0.00;;;;;;;;;;33984748;26;20748;-59
2024/04/12 03:32:06;;;;;;;0.00;0.00;;;;;;;;;;33985545;26;20288;-58
2024/04/12 03:47:13;;;;;;;0.00;0.00;;;;;;;;;;33764926;26;20808;-59
2024/04/12 04:02:19;;;;;;;0.00;0.00;;;;;;;;;;33790625;26;20253;-59
2024/04/12 04:17:29;;;;;;;0.00;0.00;;;;;;;;;;33986745;26;20312;-59
2024/04/12 04:33:01;;;;;;;0.00;0.00;;;;;;;;;;33993869;26;20289;-58
2024/04/12 04:48:10;;;;;;;0.00;0.00;;;;;;;;;;34001282;26;20254;-58
2024/04/12 05:03:17;;;;;;;0.00;0.00;;;;;;;;;;33997844;26;20670;-60
2024/04/12 05:18:23;;;;;;;0.00;0.00;;;;;;;;;;34006592;26;20246;-58
2024/04/12 05:33:56;;;;;;;0.00;0.00;;;;;;;;;;34002607;26;20280;-59
2024/04/12 05:49:09;;;;;;;0.00;0.00;;;;;;;;;;33999215;26;20258;-58
2024/04/12 06:04:19;;;;;;;0.00;0.00;;;;;;;;;;34007683;25;20254;-58
2024/04/12 06:19:26;;;;;;;0.00;0.00;;;;;;;;;;34003060;26;20258;-58
2024/04/12 06:35:03;;;;;;;0.00;0.00;;;;;;;;;;34002016;26;20257;-58
2024/04/12 06:50:09;;;;;;;0.00;0.00;;;;;;;;;;33999240;26;20261;-59
2024/04/12 07:05:16;;;;;;;0.00;0.00;;;;;;;;;;33998854;26;20601;-60
2024/04/12 07:20:27;;;;;;;0.00;0.00;;;;;;;;;;33994316;26;20258;-58
2024/04/12 07:35:59;;;;;;;0.00;0.00;;;;;;;;;;33995059;26;20249;-58
2024/04/12 07:51:06;;;;;;;0.00;0.00;;;;;;;;;;33986935;26;20304;-58
2024/04/12 08:06:36;;;;;;;0.00;0.00;;;;;;;;;;33993675;26;20783;-58
2024/04/12 08:21:42;;;;;;;0.00;0.00;;;;;;;;;;33989374;26;20694;-58
2024/04/12 08:37:17;;;;;;;0.00;0.00;;;;;;;;;;33975972;26;20254;-58
2024/04/12 08:52:28;;;;;;;0.00;0.00;;;;;;;;;;33986703;26;20296;-58
2024/04/12 09:07:35;;;;;;;0.00;0.00;;;;;;;;;;33986762;26;20254;-58
2024/04/12 09:22:43;;;;;;;0.00;0.00;;;;;;;;;;34000810;26;20258;-57
2024/04/12 09:38:16;;;;;;;0.00;0.00;;;;;;;;;;33998756;26;20262;-58
2024/04/12 10:39:58;;;;;;;0.00;0.00;;;;;;;;;;34034107;26;20301;-58
2024/04/12 10:55:08;;;;;;;0.00;0.00;;;;;;;;;;33995159;26;20301;-58
2024/04/12 11:10:24;;;;;;;0.00;0.00;;;;;;;;;;34076026;26;20254;-58
2024/04/12 11:41:23;;;;;;;0.00;0.00;;;;;;;;;;34136460;26;20636;-58
2024/04/12 11:56:31;;;;;;;0.00;0.00;;;;;;;;;;34137588;26;20802;-58
2024/04/12 12:11:37;;;;;;;0.00;0.00;;;;;;;;;;34048172;25;20292;-58
2024/04/12 12:26:44;;;;;;;0.00;0.00;;;;;;;;;;33994159;26;20249;-58
2024/04/12 12:42:17;;;;;;;0.00;0.00;;;;;;;;;;33982583;26;20645;-57
2024/04/12 12:57:25;;;;;;;0.00;0.00;;;;;;;;;;34008286;26;20614;-58
2024/04/12 13:12:31;;;;;;;0.00;0.00;;;;;;;;;;34105589;26;20313;-58
2024/04/12 13:27:40;;;;;;;0.00;0.00;;;;;;;;;;34136105;26;20386;-59
2024/04/12 13:43:14;;;;;;;0.00;0.00;;;;;;;;;;34146771;26;20783;-58
2024/04/12 13:58:20;;;;;;;0.00;0.00;;;;;;;;;;34127463;26;20265;-58
2024/04/12 14:13:28;;;;;;;0.00;0.00;;;;;;;;;;34038606;26;20257;-57
2024/04/12 14:28:34;;;;;;;0.00;0.00;;;;;;;;;;34003383;26;20617;-58
2024/04/12 14:44:07;;;;;;;0.00;0.00;;;;;;;;;;34002221;26;20288;-58
2024/04/12 14:59:14;;;;;;;0.00;0.00;;;;;;;;;;34002191;26;20369;-57
2024/04/12 16:16:15;;;;;;;0.00;0.00;;;;;;;;;;33888944;26;20304;-59
2024/04/12 16:31:22;;;;;;;0.00;0.00;;;;;;;;;;33991111;26;20258;-58
2024/04/12 16:46:28;;;;;;;0.00;0.00;;;;;;;;;;33989841;26;20329;-61
2024/04/12 17:02:00;;;;;;;0.00;0.00;;;;;;;;;;33988786;26;20250;-61
2024/04/12 17:17:07;;;;;;;0.00;0.00;;;;;;;;;;33986661;26;20254;-58
2024/04/12 17:32:15;;;;;;;0.00;0.00;;;;;;;;;;33980484;26;20262;-58
2024/04/12 17:47:23;;;;;;;0.00;0.00;;;;;;;;;;34007388;26;20253;-58
2024/04/12 18:02:56;;;;;;;0.00;0.00;;;;;;;;;;34004806;26;20625;-61
2024/04/12 18:18:05;;;;;;;0.00;0.00;;;;;;;;;;33998607;26;20292;-61
2024/04/12 18:33:13;;;;;;;0.00;0.00;;;;;;;;;;33999857;26;20242;-61
2024/04/12 18:48:19;;;;;;;0.00;0.00;;;;;;;;;;33982880;26;20265;-61
2024/04/12 19:03:28;;;;;;;0.00;0.00;;;;;;;;;;33996399;26;20292;-61
2024/04/12 19:19:00;;;;;;;0.00;0.00;;;;;;;;;;33997827;26;20787;-61
2024/04/12 19:34:08;;;;;;;0.00;0.00;;;;;;;;;;33995228;26;20352;-58
2024/04/12 19:49:14;;;;;;;0.00;0.00;;;;;;;;;;33998026;26;20246;-58
2024/04/12 20:04:21;;;;;;;0.00;0.00;;;;;;;;;;33994353;26;20844;-60
2024/04/12 20:19:28;;;;;;;0.00;0.00;;;;;;;;;;33995495;26;20250;-58
2024/04/12 20:35:19;;;;;;;0.00;0.00;;;;;;;;;;33992077;26;20300;-59
2024/04/12 20:50:25;;;;;;;0.00;0.00;;;;;;;;;;33988122;26;20340;-58
2024/04/12 21:05:32;;;;;;;0.00;0.00;;;;;;;;;;33984002;26;20873;-58
2024/04/12 21:20:42;;;;;;;0.00;0.00;;;;;;;;;;33917729;20;20369;-77
2024/04/12 21:36:15;;;;;;;0.00;0.00;;;;;;;;;;33640077;26;20687;-77
2024/04/12 21:51:23;;;;;;;0.00;0.00;;;;;;;;;;33648227;26;20748;-77
2024/04/12 22:06:29;;;;;;;0.00;0.00;;;;;;;;;;33624885;26;20302;-77
2024/04/12 22:21:35;;;;;;;0.00;0.00;;;;;;;;;;33641889;26;20345;-77
2024/04/12 22:37:09;;;;;;;0.00;0.00;;;;;;;;;;33636817;26;20251;-77
2024/04/12 22:52:19;;;;;;;0.00;0.00;;;;;;;;;;33640571;26;20366;-77
2024/04/12 23:07:25;;;;;;;0.00;0.00;;;;;;;;;;33636011;26;20251;-77
2024/04/12 23:22:32;;;;;;;0.00;0.00;;;;;;;;;;33646016;26;20308;-77
2024/04/12 23:38:04;;;;;;;0.00;0.00;;;;;;;;;;33621285;26;20339;-77
2024/04/12 23:53:13;;;;;;;0.00;0.00;;;;;;;;;;33633542;26;20303;-77
